sensor_id;sensor_type;location;lat;lon;timestamp;P1;durP1;ratioP1;P2;durP2;ratioP2
71715;SDS011;59568;52.128;5.434;2023-08-20T00:00:30;9.40;;;3.55;;
71715;SDS011;59568;52.128;5.434;2023-08-20T00:03:07;6.50;;;3.10;;
71715;SDS011;59568;52.128;5.434;2023-08-20T00:05:37;9.25;;;3.10;;
71715;SDS011;59568;52.128;5.434;2023-08-20T00:08:04;5.95;;;3.50;;
71715;SDS011;59568;52.128;5.434;2023-08-20T00:10:31;9.35;;;3.40;;
71715;SDS011;59568;52.128;5.434;2023-08-20T00:12:58;6.45;;;3.08;;
71715;SDS011;59568;52.128;5.434;2023-08-20T00:15:25;6.10;;;3.10;;
71715;SDS011;59568;52.128;5.434;2023-08-20T00:17:55;9.27;;;3.17;;
71715;SDS011;59568;52.128;5.434;2023-08-20T00:20:22;6.30;;;2.97;;
71715;SDS011;59568;52.128;5.434;2023-08-20T00:22:49;7.50;;;3.13;;
71715;SDS011;59568;52.128;5.434;2023-08-20T00:25:16;8.00;;;3.45;;
71715;SDS011;59568;52.128;5.434;2023-08-20T00:27:43;7.40;;;3.57;;
71715;SDS011;59568;52.128;5.434;2023-08-20T00:30:10;8.35;;;3.67;;
71715;SDS011;59568;52.128;5.434;2023-08-20T00:32:37;6.78;;;2.97;;
71715;SDS011;59568;52.128;5.434;2023-08-20T00:35:04;7.60;;;3.00;;
71715;SDS011;59568;52.128;5.434;2023-08-20T00:37:33;4.80;;;2.90;;
71715;SDS011;59568;52.128;5.434;2023-08-20T00:40:00;6.30;;;3.13;;
71715;SDS011;59568;52.128;5.434;2023-08-20T00:42:30;6.20;;;2.90;;
71715;SDS011;59568;52.128;5.434;2023-08-20T00:44:57;5.72;;;2.80;;
71715;SDS011;59568;52.128;5.434;2023-08-20T00:47:23;6.35;;;2.90;;
71715;SDS011;59568;52.128;5.434;2023-08-20T00:49:50;5.95;;;2.90;;
71715;SDS011;59568;52.128;5.434;2023-08-20T00:52:17;7.93;;;2.97;;
71715;SDS011;59568;52.128;5.434;2023-08-20T00:54:44;6.50;;;3.10;;
71715;SDS011;59568;52.128;5.434;2023-08-20T00:57:14;6.55;;;2.65;;
71715;SDS011;59568;52.128;5.434;2023-08-20T00:59:43;5.78;;;2.80;;
71715;SDS011;59568;52.128;5.434;2023-08-20T01:02:10;5.45;;;2.50;;
71715;SDS011;59568;52.128;5.434;2023-08-20T01:04:37;7.93;;;2.67;;
71715;SDS011;59568;52.128;5.434;2023-08-20T01:07:05;10.52;;;3.20;;
71715;SDS011;59568;52.128;5.434;2023-08-20T01:12:09;4.68;;;2.60;;
71715;SDS011;59568;52.128;5.434;2023-08-20T01:14:36;8.10;;;3.00;;
71715;SDS011;59568;52.128;5.434;2023-08-20T01:17:02;6.80;;;3.10;;
71715;SDS011;59568;52.128;5.434;2023-08-20T01:19:29;6.07;;;2.60;;
71715;SDS011;59568;52.128;5.434;2023-08-20T01:22:02;6.60;;;2.83;;
71715;SDS011;59568;52.128;5.434;2023-08-20T01:30:30;5.87;;;2.57;;
71715;SDS011;59568;52.128;5.434;2023-08-20T01:32:57;3.83;;;2.17;;
71715;SDS011;59568;52.128;5.434;2023-08-20T01:35:25;7.20;;;2.60;;
71715;SDS011;59568;52.128;5.434;2023-08-20T01:37:52;6.63;;;2.88;;
71715;SDS011;59568;52.128;5.434;2023-08-20T01:40:19;5.10;;;2.42;;
71715;SDS011;59568;52.128;5.434;2023-08-20T01:42:45;7.03;;;2.73;;
71715;SDS011;59568;52.128;5.434;2023-08-20T01:45:12;7.03;;;2.78;;
71715;SDS011;59568;52.128;5.434;2023-08-20T01:47:38;7.15;;;2.60;;
71715;SDS011;59568;52.128;5.434;2023-08-20T01:50:05;6.40;;;2.55;;
71715;SDS011;59568;52.128;5.434;2023-08-20T01:52:33;7.97;;;2.65;;
71715;SDS011;59568;52.128;5.434;2023-08-20T01:54:59;4.00;;;1.87;;
71715;SDS011;59568;52.128;5.434;2023-08-20T01:57:26;5.40;;;2.60;;
71715;SDS011;59568;52.128;5.434;2023-08-20T01:59:52;4.30;;;2.40;;
71715;SDS011;59568;52.128;5.434;2023-08-20T02:02:19;6.25;;;2.63;;
71715;SDS011;59568;52.128;5.434;2023-08-20T02:04:46;7.45;;;2.70;;
71715;SDS011;59568;52.128;5.434;2023-08-20T02:07:13;5.40;;;2.27;;
71715;SDS011;59568;52.128;5.434;2023-08-20T02:09:39;5.07;;;2.95;;
71715;SDS011;59568;52.128;5.434;2023-08-20T02:12:06;3.63;;;1.98;;
71715;SDS011;59568;52.128;5.434;2023-08-20T02:14:33;6.72;;;2.45;;
71715;SDS011;59568;52.128;5.434;2023-08-20T02:17:04;5.22;;;2.33;;
71715;SDS011;59568;52.128;5.434;2023-08-20T02:19:31;4.57;;;2.43;;
71715;SDS011;59568;52.128;5.434;2023-08-20T02:21:57;3.78;;;1.88;;
71715;SDS011;59568;52.128;5.434;2023-08-20T02:24:24;6.50;;;2.55;;
71715;SDS011;59568;52.128;5.434;2023-08-20T02:26:51;7.05;;;2.22;;
71715;SDS011;59568;52.128;5.434;2023-08-20T02:29:17;5.45;;;2.30;;
71715;SDS011;59568;52.128;5.434;2023-08-20T02:31:44;6.03;;;2.60;;
71715;SDS011;59568;52.128;5.434;2023-08-20T02:34:10;6.05;;;2.10;;
71715;SDS011;59568;52.128;5.434;2023-08-20T02:36:36;5.63;;;2.80;;
71715;SDS011;59568;52.128;5.434;2023-08-20T02:39:03;4.88;;;2.00;;
71715;SDS011;59568;52.128;5.434;2023-08-20T02:41:34;7.72;;;3.00;;
71715;SDS011;59568;52.128;5.434;2023-08-20T02:44:02;6.67;;;2.30;;
71715;SDS011;59568;52.128;5.434;2023-08-20T02:46:29;8.07;;;3.42;;
71715;SDS011;59568;52.128;5.434;2023-08-20T02:48:56;4.43;;;2.80;;
71715;SDS011;59568;52.128;5.434;2023-08-20T02:51:23;6.60;;;3.30;;
71715;SDS011;59568;52.128;5.434;2023-08-20T02:53:49;6.68;;;2.50;;
71715;SDS011;59568;52.128;5.434;2023-08-20T02:56:16;4.40;;;2.47;;
71715;SDS011;59568;52.128;5.434;2023-08-20T02:58:42;7.10;;;2.55;;
71715;SDS011;59568;52.128;5.434;2023-08-20T03:01:19;4.53;;;2.63;;
71715;SDS011;59568;52.128;5.434;2023-08-20T03:03:49;4.82;;;3.00;;
71715;SDS011;59568;52.128;5.434;2023-08-20T03:06:15;4.03;;;2.63;;
71715;SDS011;59568;52.128;5.434;2023-08-20T03:08:42;4.83;;;2.60;;
71715;SDS011;59568;52.128;5.434;2023-08-20T03:11:09;7.10;;;3.03;;
71715;SDS011;59568;52.128;5.434;2023-08-20T03:13:35;4.55;;;2.47;;
71715;SDS011;59568;52.128;5.434;2023-08-20T03:16:02;5.53;;;2.63;;
71715;SDS011;59568;52.128;5.434;2023-08-20T03:18:29;4.60;;;2.55;;
71715;SDS011;59568;52.128;5.434;2023-08-20T03:20:56;4.30;;;2.60;;
71715;SDS011;59568;52.128;5.434;2023-08-20T03:23:23;4.88;;;2.88;;
71715;SDS011;59568;52.128;5.434;2023-08-20T03:25:50;7.88;;;2.80;;
71715;SDS011;59568;52.128;5.434;2023-08-20T03:28:17;5.95;;;2.85;;
71715;SDS011;59568;52.128;5.434;2023-08-20T03:30:45;5.15;;;2.50;;
71715;SDS011;59568;52.128;5.434;2023-08-20T03:33:11;4.00;;;1.87;;
71715;SDS011;59568;52.128;5.434;2023-08-20T03:35:38;5.28;;;2.42;;
71715;SDS011;59568;52.128;5.434;2023-08-20T03:38:05;3.55;;;2.47;;
71715;SDS011;59568;52.128;5.434;2023-08-20T03:40:31;5.20;;;2.28;;
71715;SDS011;59568;52.128;5.434;2023-08-20T03:42:58;6.78;;;2.67;;
71715;SDS011;59568;52.128;5.434;2023-08-20T03:45:25;4.33;;;2.37;;
71715;SDS011;59568;52.128;5.434;2023-08-20T03:47:52;5.65;;;2.55;;
71715;SDS011;59568;52.128;5.434;2023-08-20T03:50:18;5.97;;;3.00;;
71715;SDS011;59568;52.128;5.434;2023-08-20T03:52:45;6.47;;;2.85;;
71715;SDS011;59568;52.128;5.434;2023-08-20T03:55:11;5.43;;;2.38;;
71715;SDS011;59568;52.128;5.434;2023-08-20T03:57:38;4.43;;;2.90;;
71715;SDS011;59568;52.128;5.434;2023-08-20T04:00:05;6.32;;;2.80;;
71715;SDS011;59568;52.128;5.434;2023-08-20T04:02:34;6.70;;;2.80;;
71715;SDS011;59568;52.128;5.434;2023-08-20T04:05:01;5.30;;;2.78;;
71715;SDS011;59568;52.128;5.434;2023-08-20T04:07:29;6.47;;;2.60;;
71715;SDS011;59568;52.128;5.434;2023-08-20T04:09:55;5.20;;;2.17;;
71715;SDS011;59568;52.128;5.434;2023-08-20T04:12:22;4.93;;;2.30;;
71715;SDS011;59568;52.128;5.434;2023-08-20T04:14:48;7.30;;;2.88;;
71715;SDS011;59568;52.128;5.434;2023-08-20T04:17:15;5.38;;;2.45;;
71715;SDS011;59568;52.128;5.434;2023-08-20T04:19:41;6.18;;;2.85;;
71715;SDS011;59568;52.128;5.434;2023-08-20T04:22:08;4.20;;;1.97;;
71715;SDS011;59568;52.128;5.434;2023-08-20T04:24:34;4.63;;;2.40;;
71715;SDS011;59568;52.128;5.434;2023-08-20T04:27:01;3.42;;;1.92;;
71715;SDS011;59568;52.128;5.434;2023-08-20T04:29:27;4.22;;;2.13;;
71715;SDS011;59568;52.128;5.434;2023-08-20T04:31:54;5.10;;;2.33;;
71715;SDS011;59568;52.128;5.434;2023-08-20T04:34:20;4.63;;;2.07;;
71715;SDS011;59568;52.128;5.434;2023-08-20T04:36:47;3.92;;;2.13;;
71715;SDS011;59568;52.128;5.434;2023-08-20T04:39:13;5.90;;;2.10;;
71715;SDS011;59568;52.128;5.434;2023-08-20T04:41:40;6.00;;;2.22;;
71715;SDS011;59568;52.128;5.434;2023-08-20T04:44:06;4.75;;;2.25;;
71715;SDS011;59568;52.128;5.434;2023-08-20T04:46:33;7.70;;;2.43;;
71715;SDS011;59568;52.128;5.434;2023-08-20T04:48:59;3.58;;;2.08;;
71715;SDS011;59568;52.128;5.434;2023-08-20T04:51:26;3.63;;;1.75;;
71715;SDS011;59568;52.128;5.434;2023-08-20T04:53:53;3.10;;;2.08;;
71715;SDS011;59568;52.128;5.434;2023-08-20T04:56:19;6.30;;;2.20;;
71715;SDS011;59568;52.128;5.434;2023-08-20T04:58:46;4.27;;;2.60;;
71715;SDS011;59568;52.128;5.434;2023-08-20T05:01:12;2.92;;;1.83;;
71715;SDS011;59568;52.128;5.434;2023-08-20T05:03:39;5.97;;;2.50;;
71715;SDS011;59568;52.128;5.434;2023-08-20T05:06:05;3.70;;;2.05;;
71715;SDS011;59568;52.128;5.434;2023-08-20T05:08:32;5.28;;;2.20;;
71715;SDS011;59568;52.128;5.434;2023-08-20T05:10:59;3.60;;;1.97;;
71715;SDS011;59568;52.128;5.434;2023-08-20T05:13:25;5.43;;;2.00;;
71715;SDS011;59568;52.128;5.434;2023-08-20T05:15:52;4.30;;;1.80;;
71715;SDS011;59568;52.128;5.434;2023-08-20T05:18:18;4.75;;;2.00;;
71715;SDS011;59568;52.128;5.434;2023-08-20T05:20:45;4.10;;;1.88;;
71715;SDS011;59568;52.128;5.434;2023-08-20T05:23:11;4.13;;;2.30;;
71715;SDS011;59568;52.128;5.434;2023-08-20T05:25:38;3.85;;;2.03;;
71715;SDS011;59568;52.128;5.434;2023-08-20T05:28:05;2.78;;;1.90;;
71715;SDS011;59568;52.128;5.434;2023-08-20T05:30:32;4.18;;;1.63;;
71715;SDS011;59568;52.128;5.434;2023-08-20T05:32:59;4.80;;;1.83;;
71715;SDS011;59568;52.128;5.434;2023-08-20T05:35:26;3.90;;;1.77;;
71715;SDS011;59568;52.128;5.434;2023-08-20T05:37:54;4.10;;;1.88;;
71715;SDS011;59568;52.128;5.434;2023-08-20T05:40:21;3.50;;;1.67;;
71715;SDS011;59568;52.128;5.434;2023-08-20T05:42:47;4.70;;;2.00;;
71715;SDS011;59568;52.128;5.434;2023-08-20T05:45:17;4.82;;;2.92;;
71715;SDS011;59568;52.128;5.434;2023-08-20T05:47:44;3.10;;;2.00;;
71715;SDS011;59568;52.128;5.434;2023-08-20T05:50:10;5.65;;;2.50;;
71715;SDS011;59568;52.128;5.434;2023-08-20T05:52:37;7.35;;;3.15;;
71715;SDS011;59568;52.128;5.434;2023-08-20T05:55:04;3.92;;;2.40;;
71715;SDS011;59568;52.128;5.434;2023-08-20T05:57:30;5.32;;;2.45;;
71715;SDS011;59568;52.128;5.434;2023-08-20T05:59:57;13.70;;;2.63;;
71715;SDS011;59568;52.128;5.434;2023-08-20T06:02:24;5.40;;;2.42;;
71715;SDS011;59568;52.128;5.434;2023-08-20T06:04:50;6.82;;;2.20;;
71715;SDS011;59568;52.128;5.434;2023-08-20T06:07:17;4.78;;;2.47;;
71715;SDS011;59568;52.128;5.434;2023-08-20T06:09:43;5.63;;;2.28;;
71715;SDS011;59568;52.128;5.434;2023-08-20T06:12:10;5.83;;;2.07;;
71715;SDS011;59568;52.128;5.434;2023-08-20T06:14:36;5.82;;;2.42;;
71715;SDS011;59568;52.128;5.434;2023-08-20T06:17:03;8.77;;;2.78;;
71715;SDS011;59568;52.128;5.434;2023-08-20T06:19:30;7.38;;;2.20;;
71715;SDS011;59568;52.128;5.434;2023-08-20T06:21:56;6.65;;;2.75;;
71715;SDS011;59568;52.128;5.434;2023-08-20T06:24:23;6.63;;;2.20;;
71715;SDS011;59568;52.128;5.434;2023-08-20T06:26:49;7.05;;;1.92;;
71715;SDS011;59568;52.128;5.434;2023-08-20T06:29:17;5.18;;;2.38;;
71715;SDS011;59568;52.128;5.434;2023-08-20T06:31:43;3.80;;;2.35;;
71715;SDS011;59568;52.128;5.434;2023-08-20T06:34:10;5.18;;;2.20;;
71715;SDS011;59568;52.128;5.434;2023-08-20T06:36:37;5.70;;;2.03;;
71715;SDS011;59568;52.128;5.434;2023-08-20T06:39:03;5.25;;;1.80;;
71715;SDS011;59568;52.128;5.434;2023-08-20T06:41:30;3.70;;;1.95;;
71715;SDS011;59568;52.128;5.434;2023-08-20T06:43:56;6.68;;;1.60;;
71715;SDS011;59568;52.128;5.434;2023-08-20T06:46:23;4.18;;;1.40;;
71715;SDS011;59568;52.128;5.434;2023-08-20T06:48:50;5.67;;;1.53;;
71715;SDS011;59568;52.128;5.434;2023-08-20T06:51:19;3.42;;;1.40;;
71715;SDS011;59568;52.128;5.434;2023-08-20T06:53:46;5.00;;;1.55;;
71715;SDS011;59568;52.128;5.434;2023-08-20T06:56:13;5.43;;;1.92;;
71715;SDS011;59568;52.128;5.434;2023-08-20T06:58:40;4.43;;;1.17;;
71715;SDS011;59568;52.128;5.434;2023-08-20T07:01:08;3.97;;;1.20;;
71715;SDS011;59568;52.128;5.434;2023-08-20T07:03:39;3.97;;;1.50;;
71715;SDS011;59568;52.128;5.434;2023-08-20T07:06:06;4.03;;;1.10;;
71715;SDS011;59568;52.128;5.434;2023-08-20T07:08:35;5.60;;;1.17;;
71715;SDS011;59568;52.128;5.434;2023-08-20T07:11:03;4.18;;;1.70;;
71715;SDS011;59568;52.128;5.434;2023-08-20T07:13:29;5.87;;;1.97;;
71715;SDS011;59568;52.128;5.434;2023-08-20T07:15:56;4.10;;;1.05;;
71715;SDS011;59568;52.128;5.434;2023-08-20T07:18:23;5.05;;;0.95;;
71715;SDS011;59568;52.128;5.434;2023-08-20T07:20:50;4.72;;;0.98;;
71715;SDS011;59568;52.128;5.434;2023-08-20T07:23:17;7.00;;;0.98;;
71715;SDS011;59568;52.128;5.434;2023-08-20T07:25:43;4.97;;;0.90;;
71715;SDS011;59568;52.128;5.434;2023-08-20T07:28:13;3.90;;;0.85;;
71715;SDS011;59568;52.128;5.434;2023-08-20T07:30:39;6.05;;;1.00;;
71715;SDS011;59568;52.128;5.434;2023-08-20T07:33:06;2.42;;;0.60;;
71715;SDS011;59568;52.128;5.434;2023-08-20T07:35:33;4.85;;;1.02;;
71715;SDS011;59568;52.128;5.434;2023-08-20T07:38:01;3.47;;;0.70;;
71715;SDS011;59568;52.128;5.434;2023-08-20T07:40:28;5.95;;;0.57;;
71715;SDS011;59568;52.128;5.434;2023-08-20T07:42:55;5.00;;;1.02;;
71715;SDS011;59568;52.128;5.434;2023-08-20T07:45:22;5.75;;;0.70;;
71715;SDS011;59568;52.128;5.434;2023-08-20T07:47:49;4.85;;;0.70;;
71715;SDS011;59568;52.128;5.434;2023-08-20T07:50:15;3.80;;;0.50;;
71715;SDS011;59568;52.128;5.434;2023-08-20T07:52:42;3.05;;;0.35;;
71715;SDS011;59568;52.128;5.434;2023-08-20T07:55:09;5.20;;;0.95;;
71715;SDS011;59568;52.128;5.434;2023-08-20T07:57:35;6.00;;;0.90;;
71715;SDS011;59568;52.128;5.434;2023-08-20T08:00:02;3.45;;;0.50;;
71715;SDS011;59568;52.128;5.434;2023-08-20T08:02:30;3.08;;;0.47;;
71715;SDS011;59568;52.128;5.434;2023-08-20T08:04:57;3.65;;;0.40;;
71715;SDS011;59568;52.128;5.434;2023-08-20T08:07:23;4.05;;;0.80;;
71715;SDS011;59568;52.128;5.434;2023-08-20T08:09:50;3.22;;;0.60;;
71715;SDS011;59568;52.128;5.434;2023-08-20T08:12:16;5.32;;;0.60;;
71715;SDS011;59568;52.128;5.434;2023-08-20T08:14:43;5.30;;;0.60;;
71715;SDS011;59568;52.128;5.434;2023-08-20T08:17:09;2.97;;;0.60;;
71715;SDS011;59568;52.128;5.434;2023-08-20T08:19:36;5.13;;;0.52;;
71715;SDS011;59568;52.128;5.434;2023-08-20T08:22:02;4.82;;;0.50;;
71715;SDS011;59568;52.128;5.434;2023-08-20T08:24:29;4.38;;;0.50;;
71715;SDS011;59568;52.128;5.434;2023-08-20T08:26:56;3.33;;;0.60;;
71715;SDS011;59568;52.128;5.434;2023-08-20T08:29:22;4.85;;;0.50;;
71715;SDS011;59568;52.128;5.434;2023-08-20T08:31:49;4.65;;;0.68;;
71715;SDS011;59568;52.128;5.434;2023-08-20T08:34:15;3.05;;;0.40;;
71715;SDS011;59568;52.128;5.434;2023-08-20T08:36:42;3.67;;;0.60;;
71715;SDS011;59568;52.128;5.434;2023-08-20T08:39:08;2.55;;;0.40;;
71715;SDS011;59568;52.128;5.434;2023-08-20T08:41:35;3.97;;;0.30;;
71715;SDS011;59568;52.128;5.434;2023-08-20T08:44:06;5.22;;;0.38;;
71715;SDS011;59568;52.128;5.434;2023-08-20T08:46:35;2.88;;;0.38;;
71715;SDS011;59568;52.128;5.434;2023-08-20T08:49:04;3.47;;;0.50;;
71715;SDS011;59568;52.128;5.434;2023-08-20T08:51:31;3.08;;;0.35;;
71715;SDS011;59568;52.128;5.434;2023-08-20T08:53:58;3.67;;;0.40;;
71715;SDS011;59568;52.128;5.434;2023-08-20T08:56:25;3.53;;;0.80;;
71715;SDS011;59568;52.128;5.434;2023-08-20T08:58:51;5.50;;;0.57;;
71715;SDS011;59568;52.128;5.434;2023-08-20T09:01:18;2.47;;;0.30;;
71715;SDS011;59568;52.128;5.434;2023-08-20T09:03:45;2.93;;;0.70;;
71715;SDS011;59568;52.128;5.434;2023-08-20T09:06:11;3.45;;;0.45;;
71715;SDS011;59568;52.128;5.434;2023-08-20T09:08:39;5.22;;;0.40;;
71715;SDS011;59568;52.128;5.434;2023-08-20T09:11:06;2.72;;;0.40;;
71715;SDS011;59568;52.128;5.434;2023-08-20T09:15:59;4.50;;;0.40;;
71715;SDS011;59568;52.128;5.434;2023-08-20T09:18:29;4.30;;;0.30;;
71715;SDS011;59568;52.128;5.434;2023-08-20T09:20:56;2.30;;;0.57;;
71715;SDS011;59568;52.128;5.434;2023-08-20T09:23:25;3.97;;;0.40;;
71715;SDS011;59568;52.128;5.434;2023-08-20T09:25:54;3.92;;;0.30;;
71715;SDS011;59568;52.128;5.434;2023-08-20T09:28:21;1.55;;;0.20;;
71715;SDS011;59568;52.128;5.434;2023-08-20T09:30:58;3.70;;;0.35;;
71715;SDS011;59568;52.128;5.434;2023-08-20T09:33:27;2.03;;;0.30;;
71715;SDS011;59568;52.128;5.434;2023-08-20T09:35:54;2.35;;;0.73;;
71715;SDS011;59568;52.128;5.434;2023-08-20T09:38:23;2.95;;;0.50;;
71715;SDS011;59568;52.128;5.434;2023-08-20T09:40:51;2.25;;;0.30;;
71715;SDS011;59568;52.128;5.434;2023-08-20T09:43:19;3.00;;;0.30;;
71715;SDS011;59568;52.128;5.434;2023-08-20T09:45:47;2.70;;;0.30;;
71715;SDS011;59568;52.128;5.434;2023-08-20T09:48:17;4.43;;;0.38;;
71715;SDS011;59568;52.128;5.434;2023-08-20T09:50:48;2.80;;;0.30;;
71715;SDS011;59568;52.128;5.434;2023-08-20T09:56:03;3.60;;;0.90;;
71715;SDS011;59568;52.128;5.434;2023-08-20T09:58:38;3.50;;;0.40;;
71715;SDS011;59568;52.128;5.434;2023-08-20T10:01:06;2.22;;;0.30;;
71715;SDS011;59568;52.128;5.434;2023-08-20T10:03:33;4.13;;;0.40;;
71715;SDS011;59568;52.128;5.434;2023-08-20T10:06:00;3.05;;;0.20;;
71715;SDS011;59568;52.128;5.434;2023-08-20T10:08:28;3.10;;;0.52;;
71715;SDS011;59568;52.128;5.434;2023-08-20T10:10:55;1.48;;;0.20;;
71715;SDS011;59568;52.128;5.434;2023-08-20T10:13:21;4.80;;;0.40;;
71715;SDS011;59568;52.128;5.434;2023-08-20T10:15:48;1.95;;;0.22;;
71715;SDS011;59568;52.128;5.434;2023-08-20T10:18:18;2.45;;;0.60;;
71715;SDS011;59568;52.128;5.434;2023-08-20T10:20:46;3.67;;;0.30;;
71715;SDS011;59568;52.128;5.434;2023-08-20T10:23:12;2.33;;;0.38;;
71715;SDS011;59568;52.128;5.434;2023-08-20T10:25:42;1.67;;;0.30;;
71715;SDS011;59568;52.128;5.434;2023-08-20T10:28:23;2.35;;;0.45;;
71715;SDS011;59568;52.128;5.434;2023-08-20T10:31:10;3.08;;;0.35;;
71715;SDS011;59568;52.128;5.434;2023-08-20T10:36:18;3.08;;;0.25;;
71715;SDS011;59568;52.128;5.434;2023-08-20T10:38:51;3.60;;;0.40;;
71715;SDS011;59568;52.128;5.434;2023-08-20T10:41:25;2.17;;;0.30;;
71715;SDS011;59568;52.128;5.434;2023-08-20T10:43:52;1.80;;;0.37;;
71715;SDS011;59568;52.128;5.434;2023-08-20T10:46:20;2.97;;;0.20;;
71715;SDS011;59568;52.128;5.434;2023-08-20T10:48:48;3.83;;;0.20;;
71715;SDS011;59568;52.128;5.434;2023-08-20T10:51:33;2.05;;;0.30;;
71715;SDS011;59568;52.128;5.434;2023-08-20T10:59:47;2.05;;;0.20;;
71715;SDS011;59568;52.128;5.434;2023-08-20T11:02:07;2.33;;;0.28;;
71715;SDS011;59568;52.128;5.434;2023-08-20T11:04:41;3.75;;;0.40;;
71715;SDS011;59568;52.128;5.434;2023-08-20T11:07:07;3.60;;;0.30;;
71715;SDS011;59568;52.128;5.434;2023-08-20T11:09:34;3.95;;;0.40;;
71715;SDS011;59568;52.128;5.434;2023-08-20T11:12:01;2.35;;;0.30;;
71715;SDS011;59568;52.128;5.434;2023-08-20T11:14:28;3.28;;;0.22;;
71715;SDS011;59568;52.128;5.434;2023-08-20T11:16:54;1.77;;;0.20;;
71715;SDS011;59568;52.128;5.434;2023-08-20T11:19:22;1.63;;;0.30;;
71715;SDS011;59568;52.128;5.434;2023-08-20T11:21:50;1.50;;;0.20;;
71715;SDS011;59568;52.128;5.434;2023-08-20T11:24:17;2.08;;;0.20;;
71715;SDS011;59568;52.128;5.434;2023-08-20T11:26:44;2.55;;;0.30;;
71715;SDS011;59568;52.128;5.434;2023-08-20T11:29:11;4.45;;;0.30;;
71715;SDS011;59568;52.128;5.434;2023-08-20T11:31:39;4.15;;;0.32;;
71715;SDS011;59568;52.128;5.434;2023-08-20T11:34:07;3.27;;;0.30;;
71715;SDS011;59568;52.128;5.434;2023-08-20T11:36:34;1.70;;;0.30;;
71715;SDS011;59568;52.128;5.434;2023-08-20T11:39:01;3.45;;;0.40;;
71715;SDS011;59568;52.128;5.434;2023-08-20T11:41:28;2.45;;;0.30;;
71715;SDS011;59568;52.128;5.434;2023-08-20T11:43:55;2.97;;;0.20;;
71715;SDS011;59568;52.128;5.434;2023-08-20T11:46:22;3.75;;;0.40;;
71715;SDS011;59568;52.128;5.434;2023-08-20T11:54:16;2.72;;;0.20;;
71715;SDS011;59568;52.128;5.434;2023-08-20T11:56:44;1.98;;;0.40;;
71715;SDS011;59568;52.128;5.434;2023-08-20T11:59:12;3.80;;;0.30;;
71715;SDS011;59568;52.128;5.434;2023-08-20T12:01:39;3.80;;;0.40;;
71715;SDS011;59568;52.128;5.434;2023-08-20T12:04:06;2.47;;;0.40;;
71715;SDS011;59568;52.128;5.434;2023-08-20T12:06:35;1.88;;;0.22;;
71715;SDS011;59568;52.128;5.434;2023-08-20T12:09:18;3.35;;;0.30;;
71715;SDS011;59568;52.128;5.434;2023-08-20T12:11:51;2.17;;;0.43;;
71715;SDS011;59568;52.128;5.434;2023-08-20T12:14:18;2.28;;;0.30;;
71715;SDS011;59568;52.128;5.434;2023-08-20T12:16:46;4.22;;;0.20;;
71715;SDS011;59568;52.128;5.434;2023-08-20T12:19:13;2.95;;;0.20;;
71715;SDS011;59568;52.128;5.434;2023-08-20T12:21:40;3.35;;;0.70;;
71715;SDS011;59568;52.128;5.434;2023-08-20T12:24:08;2.97;;;0.30;;
71715;SDS011;59568;52.128;5.434;2023-08-20T12:26:38;2.42;;;0.32;;
71715;SDS011;59568;52.128;5.434;2023-08-20T12:29:06;3.42;;;0.30;;
71715;SDS011;59568;52.128;5.434;2023-08-20T12:31:33;4.38;;;0.35;;
71715;SDS011;59568;52.128;5.434;2023-08-20T12:34:00;0.93;;;0.20;;
71715;SDS011;59568;52.128;5.434;2023-08-20T12:36:27;2.80;;;0.70;;
71715;SDS011;59568;52.128;5.434;2023-08-20T12:38:54;3.40;;;0.30;;
71715;SDS011;59568;52.128;5.434;2023-08-20T12:41:21;3.83;;;0.50;;
71715;SDS011;59568;52.128;5.434;2023-08-20T12:43:48;3.47;;;0.30;;
71715;SDS011;59568;52.128;5.434;2023-08-20T12:46:15;3.15;;;0.40;;
71715;SDS011;59568;52.128;5.434;2023-08-20T12:48:42;4.25;;;0.50;;
71715;SDS011;59568;52.128;5.434;2023-08-20T12:51:09;4.63;;;0.65;;
71715;SDS011;59568;52.128;5.434;2023-08-20T12:53:39;3.08;;;0.20;;
71715;SDS011;59568;52.128;5.434;2023-08-20T12:56:06;3.10;;;0.35;;
71715;SDS011;59568;52.128;5.434;2023-08-20T12:58:32;1.95;;;0.40;;
71715;SDS011;59568;52.128;5.434;2023-08-20T13:00:59;3.25;;;0.40;;
71715;SDS011;59568;52.128;5.434;2023-08-20T13:03:26;3.00;;;0.32;;
71715;SDS011;59568;52.128;5.434;2023-08-20T13:05:54;1.15;;;0.20;;
71715;SDS011;59568;52.128;5.434;2023-08-20T13:08:23;1.85;;;0.30;;
71715;SDS011;59568;52.128;5.434;2023-08-20T13:10:53;1.95;;;0.30;;
71715;SDS011;59568;52.128;5.434;2023-08-20T13:13:22;1.70;;;0.20;;
71715;SDS011;59568;52.128;5.434;2023-08-20T13:15:49;4.20;;;0.30;;
71715;SDS011;59568;52.128;5.434;2023-08-20T13:18:17;3.22;;;0.25;;
71715;SDS011;59568;52.128;5.434;2023-08-20T13:20:44;2.03;;;0.30;;
71715;SDS011;59568;52.128;5.434;2023-08-20T13:23:10;1.88;;;0.40;;
71715;SDS011;59568;52.128;5.434;2023-08-20T13:25:37;7.57;;;0.30;;
71715;SDS011;59568;52.128;5.434;2023-08-20T13:28:04;2.47;;;0.20;;
71715;SDS011;59568;52.128;5.434;2023-08-20T13:30:30;2.90;;;0.45;;
71715;SDS011;59568;52.128;5.434;2023-08-20T13:32:59;2.17;;;0.40;;
71715;SDS011;59568;52.128;5.434;2023-08-20T13:35:27;3.65;;;0.25;;
71715;SDS011;59568;52.128;5.434;2023-08-20T13:37:53;4.80;;;0.32;;
71715;SDS011;59568;52.128;5.434;2023-08-20T13:40:20;3.50;;;0.20;;
71715;SDS011;59568;52.128;5.434;2023-08-20T13:42:47;3.38;;;0.38;;
71715;SDS011;59568;52.128;5.434;2023-08-20T13:45:13;1.30;;;0.20;;
71715;SDS011;59568;52.128;5.434;2023-08-20T13:47:40;2.70;;;0.40;;
71715;SDS011;59568;52.128;5.434;2023-08-20T13:50:07;4.35;;;0.30;;
71715;SDS011;59568;52.128;5.434;2023-08-20T13:52:34;1.75;;;0.50;;
71715;SDS011;59568;52.128;5.434;2023-08-20T13:55:01;3.92;;;0.35;;
71715;SDS011;59568;52.128;5.434;2023-08-20T13:57:27;2.45;;;0.30;;
71715;SDS011;59568;52.128;5.434;2023-08-20T13:59:54;2.15;;;0.30;;
71715;SDS011;59568;52.128;5.434;2023-08-20T14:02:20;5.93;;;0.50;;
71715;SDS011;59568;52.128;5.434;2023-08-20T14:04:49;1.90;;;0.30;;
71715;SDS011;59568;52.128;5.434;2023-08-20T14:07:17;2.53;;;0.30;;
71715;SDS011;59568;52.128;5.434;2023-08-20T14:09:44;3.55;;;0.30;;
71715;SDS011;59568;52.128;5.434;2023-08-20T14:12:10;1.80;;;0.40;;
71715;SDS011;59568;52.128;5.434;2023-08-20T14:14:37;5.07;;;0.68;;
71715;SDS011;59568;52.128;5.434;2023-08-20T14:17:04;1.55;;;0.30;;
71715;SDS011;59568;52.128;5.434;2023-08-20T14:19:30;2.08;;;0.40;;
71715;SDS011;59568;52.128;5.434;2023-08-20T14:21:57;4.05;;;0.30;;
71715;SDS011;59568;52.128;5.434;2023-08-20T14:24:23;2.40;;;0.38;;
71715;SDS011;59568;52.128;5.434;2023-08-20T14:26:49;3.85;;;0.55;;
71715;SDS011;59568;52.128;5.434;2023-08-20T14:29:16;1.67;;;0.20;;
71715;SDS011;59568;52.128;5.434;2023-08-20T14:31:42;1.55;;;0.30;;
71715;SDS011;59568;52.128;5.434;2023-08-20T14:34:09;5.35;;;0.30;;
71715;SDS011;59568;52.128;5.434;2023-08-20T14:36:36;2.72;;;0.40;;
71715;SDS011;59568;52.128;5.434;2023-08-20T14:39:02;3.45;;;0.47;;
71715;SDS011;59568;52.128;5.434;2023-08-20T14:41:30;4.03;;;0.30;;
71715;SDS011;59568;52.128;5.434;2023-08-20T14:43:57;2.22;;;0.20;;
71715;SDS011;59568;52.128;5.434;2023-08-20T14:46:23;3.25;;;0.38;;
71715;SDS011;59568;52.128;5.434;2023-08-20T14:48:50;4.28;;;0.30;;
71715;SDS011;59568;52.128;5.434;2023-08-20T14:51:17;4.15;;;0.43;;
71715;SDS011;59568;52.128;5.434;2023-08-20T14:53:43;2.50;;;0.43;;
71715;SDS011;59568;52.128;5.434;2023-08-20T14:56:10;2.63;;;0.30;;
71715;SDS011;59568;52.128;5.434;2023-08-20T14:58:36;3.58;;;0.30;;
71715;SDS011;59568;52.128;5.434;2023-08-20T15:01:03;3.38;;;0.57;;
71715;SDS011;59568;52.128;5.434;2023-08-20T15:03:29;3.95;;;0.82;;
71715;SDS011;59568;52.128;5.434;2023-08-20T15:05:56;1.55;;;0.25;;
71715;SDS011;59568;52.128;5.434;2023-08-20T15:08:23;1.77;;;0.30;;
71715;SDS011;59568;52.128;5.434;2023-08-20T15:10:59;5.18;;;2.20;;
71715;SDS011;59568;52.128;5.434;2023-08-20T15:13:27;4.57;;;1.77;;
71715;SDS011;59568;52.128;5.434;2023-08-20T15:15:53;2.25;;;0.30;;